sensor_id;sensor_type;location;lat;lon;timestamp;P1;durP1;ratioP1;P2;durP2;ratioP2
77938;SDS011;67136;47.546;21.630;2023-04-07T00:03:12;15.80;;;8.70;;
77938;SDS011;67136;47.546;21.630;2023-04-07T00:06:15;16.42;;;8.65;;
77938;SDS011;67136;47.546;21.630;2023-04-07T00:09:17;16.17;;;9.00;;
77938;SDS011;67136;47.546;21.630;2023-04-07T00:12:20;15.20;;;8.60;;
77938;SDS011;67136;47.546;21.630;2023-04-07T00:15:22;16.27;;;9.30;;
77938;SDS011;67136;47.546;21.630;2023-04-07T00:18:25;16.30;;;8.50;;
77938;SDS011;67136;47.546;21.630;2023-04-07T00:21:28;15.45;;;8.75;;
77938;SDS011;67136;47.546;21.630;2023-04-07T00:24:31;15.38;;;8.63;;
77938;SDS011;67136;47.546;21.630;2023-04-07T00:27:35;15.23;;;8.30;;
77938;SDS011;67136;47.546;21.630;2023-04-07T00:30:38;14.80;;;8.63;;
77938;SDS011;67136;47.546;21.630;2023-04-07T00:33:41;11.20;;;7.40;;
77938;SDS011;67136;47.546;21.630;2023-04-07T00:36:43;13.05;;;8.18;;
77938;SDS011;67136;47.546;21.630;2023-04-07T00:39:52;14.60;;;8.05;;
77938;SDS011;67136;47.546;21.630;2023-04-07T00:42:55;14.40;;;8.13;;
77938;SDS011;67136;47.546;21.630;2023-04-07T00:45:58;14.07;;;8.60;;
77938;SDS011;67136;47.546;21.630;2023-04-07T00:49:01;15.73;;;8.00;;
77938;SDS011;67136;47.546;21.630;2023-04-07T00:52:04;15.65;;;8.27;;
77938;SDS011;67136;47.546;21.630;2023-04-07T00:55:10;13.27;;;8.27;;
77938;SDS011;67136;47.546;21.630;2023-04-07T00:58:13;14.80;;;8.90;;
77938;SDS011;67136;47.546;21.630;2023-04-07T01:01:29;13.53;;;8.50;;
77938;SDS011;67136;47.546;21.630;2023-04-07T01:04:44;14.77;;;8.27;;
77938;SDS011;67136;47.546;21.630;2023-04-07T01:11:05;13.15;;;7.28;;
77938;SDS011;67136;47.546;21.630;2023-04-07T01:14:15;13.43;;;7.75;;
77938;SDS011;67136;47.546;21.630;2023-04-07T01:17:22;11.50;;;7.33;;
77938;SDS011;67136;47.546;21.630;2023-04-07T01:20:29;13.47;;;7.03;;
77938;SDS011;67136;47.546;21.630;2023-04-07T01:26:58;12.80;;;7.32;;
77938;SDS011;67136;47.546;21.630;2023-04-07T01:30:15;13.57;;;8.00;;
77938;SDS011;67136;47.546;21.630;2023-04-07T01:33:19;12.83;;;7.33;;
77938;SDS011;67136;47.546;21.630;2023-04-07T01:36:22;15.55;;;8.18;;
77938;SDS011;67136;47.546;21.630;2023-04-07T01:39:29;13.57;;;8.00;;
77938;SDS011;67136;47.546;21.630;2023-04-07T01:42:33;13.43;;;7.72;;
77938;SDS011;67136;47.546;21.630;2023-04-07T01:45:38;14.32;;;7.82;;
77938;SDS011;67136;47.546;21.630;2023-04-07T01:48:42;14.13;;;7.23;;
77938;SDS011;67136;47.546;21.630;2023-04-07T01:51:45;13.13;;;7.93;;
77938;SDS011;67136;47.546;21.630;2023-04-07T01:54:53;13.38;;;8.07;;
77938;SDS011;67136;47.546;21.630;2023-04-07T01:57:56;13.70;;;7.95;;
77938;SDS011;67136;47.546;21.630;2023-04-07T02:01:00;13.90;;;7.68;;
77938;SDS011;67136;47.546;21.630;2023-04-07T02:07:27;12.60;;;7.78;;
77938;SDS011;67136;47.546;21.630;2023-04-07T02:10:34;14.68;;;8.63;;
77938;SDS011;67136;47.546;21.630;2023-04-07T02:13:38;14.75;;;7.82;;
77938;SDS011;67136;47.546;21.630;2023-04-07T02:16:43;15.93;;;8.32;;
77938;SDS011;67136;47.546;21.630;2023-04-07T02:19:50;14.03;;;7.83;;
77938;SDS011;67136;47.546;21.630;2023-04-07T02:22:55;14.67;;;8.13;;
77938;SDS011;67136;47.546;21.630;2023-04-07T02:25:58;13.80;;;7.70;;
77938;SDS011;67136;47.546;21.630;2023-04-07T02:29:01;13.50;;;8.10;;
77938;SDS011;67136;47.546;21.630;2023-04-07T02:32:06;15.50;;;8.65;;
77938;SDS011;67136;47.546;21.630;2023-04-07T02:35:10;13.00;;;7.57;;
77938;SDS011;67136;47.546;21.630;2023-04-07T02:38:13;14.10;;;7.60;;
77938;SDS011;67136;47.546;21.630;2023-04-07T02:41:16;13.25;;;8.00;;
77938;SDS011;67136;47.546;21.630;2023-04-07T02:44:18;12.70;;;7.87;;
77938;SDS011;67136;47.546;21.630;2023-04-07T02:47:21;14.50;;;8.43;;
77938;SDS011;67136;47.546;21.630;2023-04-07T02:50:23;16.27;;;8.50;;
77938;SDS011;67136;47.546;21.630;2023-04-07T02:53:27;14.80;;;7.80;;
77938;SDS011;67136;47.546;21.630;2023-04-07T02:56:29;15.23;;;8.25;;
77938;SDS011;67136;47.546;21.630;2023-04-07T02:59:32;12.98;;;7.68;;
77938;SDS011;67136;47.546;21.630;2023-04-07T03:02:35;14.90;;;8.50;;
77938;SDS011;67136;47.546;21.630;2023-04-07T03:05:38;14.17;;;8.47;;
77938;SDS011;67136;47.546;21.630;2023-04-07T03:08:41;14.73;;;8.50;;
77938;SDS011;67136;47.546;21.630;2023-04-07T03:11:44;14.20;;;8.70;;
77938;SDS011;67136;47.546;21.630;2023-04-07T03:14:47;14.27;;;8.48;;
77938;SDS011;67136;47.546;21.630;2023-04-07T03:17:50;16.70;;;9.27;;
77938;SDS011;67136;47.546;21.630;2023-04-07T03:20:54;15.70;;;8.77;;
77938;SDS011;67136;47.546;21.630;2023-04-07T03:23:57;17.57;;;8.93;;
77938;SDS011;67136;47.546;21.630;2023-04-07T03:27:00;15.40;;;7.78;;
77938;SDS011;67136;47.546;21.630;2023-04-07T03:30:06;15.70;;;8.95;;
77938;SDS011;67136;47.546;21.630;2023-04-07T03:33:12;15.77;;;8.32;;
77938;SDS011;67136;47.546;21.630;2023-04-07T03:36:16;16.00;;;8.27;;
77938;SDS011;67136;47.546;21.630;2023-04-07T03:39:19;14.07;;;8.23;;
77938;SDS011;67136;47.546;21.630;2023-04-07T03:42:23;14.38;;;7.78;;
77938;SDS011;67136;47.546;21.630;2023-04-07T03:45:26;14.55;;;8.23;;
77938;SDS011;67136;47.546;21.630;2023-04-07T03:48:31;14.05;;;7.85;;
77938;SDS011;67136;47.546;21.630;2023-04-07T03:51:36;15.07;;;8.43;;
77938;SDS011;67136;47.546;21.630;2023-04-07T03:54:40;16.60;;;8.00;;
77938;SDS011;67136;47.546;21.630;2023-04-07T03:57:43;13.52;;;7.70;;
77938;SDS011;67136;47.546;21.630;2023-04-07T04:00:45;14.93;;;7.78;;
77938;SDS011;67136;47.546;21.630;2023-04-07T04:03:49;14.18;;;8.15;;
77938;SDS011;67136;47.546;21.630;2023-04-07T04:06:53;12.37;;;7.50;;
77938;SDS011;67136;47.546;21.630;2023-04-07T04:09:56;13.93;;;7.60;;
77938;SDS011;67136;47.546;21.630;2023-04-07T04:12:58;14.43;;;7.78;;
77938;SDS011;67136;47.546;21.630;2023-04-07T04:16:02;11.50;;;7.10;;
77938;SDS011;67136;47.546;21.630;2023-04-07T04:19:05;13.30;;;7.20;;
77938;SDS011;67136;47.546;21.630;2023-04-07T04:22:09;15.00;;;8.13;;
77938;SDS011;67136;47.546;21.630;2023-04-07T04:25:13;16.17;;;8.83;;
77938;SDS011;67136;47.546;21.630;2023-04-07T04:28:18;13.38;;;7.57;;
77938;SDS011;67136;47.546;21.630;2023-04-07T04:31:21;14.93;;;8.73;;
77938;SDS011;67136;47.546;21.630;2023-04-07T04:34:24;16.98;;;9.00;;
77938;SDS011;67136;47.546;21.630;2023-04-07T04:37:27;16.20;;;8.60;;
77938;SDS011;67136;47.546;21.630;2023-04-07T04:40:31;17.42;;;8.70;;
77938;SDS011;67136;47.546;21.630;2023-04-07T04:43:33;14.50;;;7.85;;
77938;SDS011;67136;47.546;21.630;2023-04-07T04:46:37;15.82;;;9.00;;
77938;SDS011;67136;47.546;21.630;2023-04-07T04:49:40;16.15;;;8.40;;
77938;SDS011;67136;47.546;21.630;2023-04-07T04:52:42;15.40;;;8.83;;
77938;SDS011;67136;47.546;21.630;2023-04-07T04:55:46;15.73;;;8.73;;
77938;SDS011;67136;47.546;21.630;2023-04-07T04:58:54;15.95;;;8.85;;
77938;SDS011;67136;47.546;21.630;2023-04-07T05:01:58;15.60;;;8.25;;
77938;SDS011;67136;47.546;21.630;2023-04-07T05:05:01;15.13;;;8.68;;
77938;SDS011;67136;47.546;21.630;2023-04-07T05:08:07;15.60;;;7.97;;
77938;SDS011;67136;47.546;21.630;2023-04-07T05:11:12;15.33;;;9.40;;
77938;SDS011;67136;47.546;21.630;2023-04-07T05:14:16;23.08;;;11.60;;
77938;SDS011;67136;47.546;21.630;2023-04-07T05:17:20;29.45;;;14.82;;
77938;SDS011;67136;47.546;21.630;2023-04-07T05:20:23;60.92;;;26.90;;
77938;SDS011;67136;47.546;21.630;2023-04-07T05:23:26;35.87;;;17.23;;
77938;SDS011;67136;47.546;21.630;2023-04-07T05:26:29;39.67;;;18.33;;
77938;SDS011;67136;47.546;21.630;2023-04-07T05:29:34;43.60;;;20.40;;
77938;SDS011;67136;47.546;21.630;2023-04-07T05:32:38;71.60;;;33.63;;
77938;SDS011;67136;47.546;21.630;2023-04-07T05:35:44;40.05;;;19.62;;
77938;SDS011;67136;47.546;21.630;2023-04-07T05:38:47;26.43;;;13.37;;
77938;SDS011;67136;47.546;21.630;2023-04-07T05:41:51;29.03;;;14.27;;
77938;SDS011;67136;47.546;21.630;2023-04-07T05:44:54;18.77;;;10.40;;
77938;SDS011;67136;47.546;21.630;2023-04-07T05:47:57;19.48;;;9.02;;
77938;SDS011;67136;47.546;21.630;2023-04-07T05:51:00;17.40;;;9.18;;
77938;SDS011;67136;47.546;21.630;2023-04-07T05:54:03;18.83;;;9.87;;
77938;SDS011;67136;47.546;21.630;2023-04-07T05:57:06;17.60;;;9.30;;
77938;SDS011;67136;47.546;21.630;2023-04-07T06:00:12;17.48;;;8.82;;
77938;SDS011;67136;47.546;21.630;2023-04-07T06:03:14;20.00;;;9.82;;
77938;SDS011;67136;47.546;21.630;2023-04-07T06:06:19;19.40;;;9.52;;
77938;SDS011;67136;47.546;21.630;2023-04-07T06:09:21;19.73;;;10.33;;
77938;SDS011;67136;47.546;21.630;2023-04-07T06:12:24;17.73;;;9.30;;
77938;SDS011;67136;47.546;21.630;2023-04-07T06:15:27;18.87;;;8.95;;
77938;SDS011;67136;47.546;21.630;2023-04-07T06:18:30;19.02;;;8.57;;
77938;SDS011;67136;47.546;21.630;2023-04-07T06:21:33;23.02;;;10.65;;
77938;SDS011;67136;47.546;21.630;2023-04-07T06:24:39;18.63;;;9.70;;
77938;SDS011;67136;47.546;21.630;2023-04-07T06:27:41;22.27;;;10.63;;
77938;SDS011;67136;47.546;21.630;2023-04-07T06:30:44;22.37;;;9.85;;
77938;SDS011;67136;47.546;21.630;2023-04-07T06:33:46;19.75;;;8.80;;
77938;SDS011;67136;47.546;21.630;2023-04-07T06:36:49;18.73;;;9.38;;
77938;SDS011;67136;47.546;21.630;2023-04-07T06:39:52;21.27;;;10.07;;
77938;SDS011;67136;47.546;21.630;2023-04-07T06:42:55;23.13;;;10.87;;
77938;SDS011;67136;47.546;21.630;2023-04-07T06:45:58;18.55;;;9.65;;
77938;SDS011;67136;47.546;21.630;2023-04-07T06:49:00;23.48;;;11.12;;
77938;SDS011;67136;47.546;21.630;2023-04-07T06:52:03;23.92;;;11.38;;
77938;SDS011;67136;47.546;21.630;2023-04-07T06:55:07;21.97;;;9.83;;
77938;SDS011;67136;47.546;21.630;2023-04-07T06:58:09;21.97;;;10.73;;
77938;SDS011;67136;47.546;21.630;2023-04-07T07:01:12;21.58;;;10.65;;
77938;SDS011;67136;47.546;21.630;2023-04-07T07:04:15;24.05;;;10.55;;
77938;SDS011;67136;47.546;21.630;2023-04-07T07:07:18;24.25;;;10.75;;
77938;SDS011;67136;47.546;21.630;2023-04-07T07:10:20;22.83;;;11.13;;
77938;SDS011;67136;47.546;21.630;2023-04-07T07:13:24;22.10;;;10.60;;
77938;SDS011;67136;47.546;21.630;2023-04-07T07:16:27;21.85;;;10.82;;
77938;SDS011;67136;47.546;21.630;2023-04-07T07:19:30;22.55;;;9.93;;
77938;SDS011;67136;47.546;21.630;2023-04-07T07:22:32;25.23;;;10.77;;
77938;SDS011;67136;47.546;21.630;2023-04-07T07:25:35;22.47;;;10.27;;
77938;SDS011;67136;47.546;21.630;2023-04-07T07:28:37;23.87;;;11.27;;
77938;SDS011;67136;47.546;21.630;2023-04-07T07:31:40;26.27;;;11.30;;
77938;SDS011;67136;47.546;21.630;2023-04-07T07:34:43;24.63;;;10.93;;
77938;SDS011;67136;47.546;21.630;2023-04-07T07:37:46;24.67;;;11.00;;
77938;SDS011;67136;47.546;21.630;2023-04-07T07:40:48;26.33;;;11.50;;
77938;SDS011;67136;47.546;21.630;2023-04-07T07:43:51;25.63;;;10.60;;
77938;SDS011;67136;47.546;21.630;2023-04-07T07:46:54;21.75;;;10.43;;
77938;SDS011;67136;47.546;21.630;2023-04-07T07:49:57;22.10;;;9.52;;
77938;SDS011;67136;47.546;21.630;2023-04-07T07:52:59;21.87;;;9.90;;
77938;SDS011;67136;47.546;21.630;2023-04-07T07:56:02;24.40;;;9.33;;
77938;SDS011;67136;47.546;21.630;2023-04-07T07:59:05;22.63;;;9.70;;
77938;SDS011;67136;47.546;21.630;2023-04-07T08:02:08;19.20;;;8.90;;
77938;SDS011;67136;47.546;21.630;2023-04-07T08:05:12;24.75;;;9.18;;
77938;SDS011;67136;47.546;21.630;2023-04-07T08:08:14;23.55;;;10.35;;
77938;SDS011;67136;47.546;21.630;2023-04-07T08:11:17;25.63;;;11.43;;
77938;SDS011;67136;47.546;21.630;2023-04-07T08:14:21;32.53;;;11.77;;
77938;SDS011;67136;47.546;21.630;2023-04-07T08:17:23;23.05;;;10.20;;
77938;SDS011;67136;47.546;21.630;2023-04-07T08:20:26;30.95;;;12.07;;
77938;SDS011;67136;47.546;21.630;2023-04-07T08:23:29;27.73;;;11.38;;
77938;SDS011;67136;47.546;21.630;2023-04-07T08:26:31;31.13;;;12.97;;
77938;SDS011;67136;47.546;21.630;2023-04-07T08:29:34;28.70;;;12.27;;
77938;SDS011;67136;47.546;21.630;2023-04-07T08:32:41;31.23;;;14.20;;
77938;SDS011;67136;47.546;21.630;2023-04-07T08:35:45;28.90;;;13.02;;
77938;SDS011;67136;47.546;21.630;2023-04-07T08:38:48;37.85;;;16.27;;
77938;SDS011;67136;47.546;21.630;2023-04-07T08:41:51;41.27;;;16.97;;
77938;SDS011;67136;47.546;21.630;2023-04-07T08:44:55;34.93;;;14.93;;
77938;SDS011;67136;47.546;21.630;2023-04-07T08:48:02;37.85;;;15.50;;
77938;SDS011;67136;47.546;21.630;2023-04-07T08:51:12;30.30;;;12.88;;
77938;SDS011;67136;47.546;21.630;2023-04-07T08:54:16;38.17;;;15.30;;
77938;SDS011;67136;47.546;21.630;2023-04-07T08:57:23;37.00;;;15.40;;
77938;SDS011;67136;47.546;21.630;2023-04-07T09:00:26;34.63;;;14.23;;
77938;SDS011;67136;47.546;21.630;2023-04-07T09:03:29;32.45;;;14.38;;
77938;SDS011;67136;47.546;21.630;2023-04-07T09:06:34;32.97;;;13.00;;
77938;SDS011;67136;47.546;21.630;2023-04-07T09:09:37;31.42;;;12.15;;
77938;SDS011;67136;47.546;21.630;2023-04-07T09:12:40;28.13;;;11.80;;
77938;SDS011;67136;47.546;21.630;2023-04-07T09:15:42;33.37;;;14.57;;
77938;SDS011;67136;47.546;21.630;2023-04-07T09:18:45;26.23;;;10.95;;
77938;SDS011;67136;47.546;21.630;2023-04-07T09:21:49;23.52;;;10.50;;
77938;SDS011;67136;47.546;21.630;2023-04-07T09:24:53;22.48;;;9.75;;
77938;SDS011;67136;47.546;21.630;2023-04-07T09:28:00;27.07;;;11.77;;
77938;SDS011;67136;47.546;21.630;2023-04-07T09:31:03;26.87;;;10.43;;
77938;SDS011;67136;47.546;21.630;2023-04-07T09:34:05;23.40;;;10.07;;
77938;SDS011;67136;47.546;21.630;2023-04-07T09:37:26;22.05;;;10.52;;
77938;SDS011;67136;47.546;21.630;2023-04-07T09:40:28;24.23;;;10.45;;
77938;SDS011;67136;47.546;21.630;2023-04-07T09:43:31;26.13;;;12.03;;
77938;SDS011;67136;47.546;21.630;2023-04-07T09:46:34;24.03;;;11.60;;
77938;SDS011;67136;47.546;21.630;2023-04-07T09:49:50;25.15;;;10.70;;
77938;SDS011;67136;47.546;21.630;2023-04-07T09:52:54;23.70;;;10.32;;
77938;SDS011;67136;47.546;21.630;2023-04-07T09:55:57;20.15;;;9.90;;
77938;SDS011;67136;47.546;21.630;2023-04-07T09:58:59;26.93;;;10.87;;
77938;SDS011;67136;47.546;21.630;2023-04-07T10:02:04;16.77;;;6.87;;
77938;SDS011;67136;47.546;21.630;2023-04-07T10:05:09;24.25;;;10.30;;
77938;SDS011;67136;47.546;21.630;2023-04-07T10:08:12;22.92;;;10.38;;
77938;SDS011;67136;47.546;21.630;2023-04-07T10:11:15;22.08;;;9.68;;
77938;SDS011;67136;47.546;21.630;2023-04-07T10:14:20;21.70;;;9.43;;
77938;SDS011;67136;47.546;21.630;2023-04-07T10:17:24;19.70;;;8.97;;
77938;SDS011;67136;47.546;21.630;2023-04-07T10:20:29;23.25;;;10.25;;
77938;SDS011;67136;47.546;21.630;2023-04-07T10:23:48;23.23;;;10.63;;
77938;SDS011;67136;47.546;21.630;2023-04-07T10:27:01;23.52;;;10.45;;
77938;SDS011;67136;47.546;21.630;2023-04-07T10:30:10;20.27;;;8.97;;
77938;SDS011;67136;47.546;21.630;2023-04-07T10:33:16;22.00;;;9.03;;
77938;SDS011;67136;47.546;21.630;2023-04-07T10:36:20;25.02;;;10.73;;
77938;SDS011;67136;47.546;21.630;2023-04-07T10:39:23;19.98;;;9.60;;
77938;SDS011;67136;47.546;21.630;2023-04-07T10:49:08;25.70;;;10.77;;
77938;SDS011;67136;47.546;21.630;2023-04-07T10:58:39;26.40;;;10.30;;
77938;SDS011;67136;47.546;21.630;2023-04-07T11:01:43;23.73;;;10.03;;
77938;SDS011;67136;47.546;21.630;2023-04-07T11:04:45;24.27;;;10.27;;
77938;SDS011;67136;47.546;21.630;2023-04-07T11:07:49;22.85;;;9.65;;
77938;SDS011;67136;47.546;21.630;2023-04-07T11:10:55;23.33;;;11.32;;
77938;SDS011;67136;47.546;21.630;2023-04-07T11:13:58;20.98;;;9.95;;
77938;SDS011;67136;47.546;21.630;2023-04-07T11:17:01;18.83;;;9.87;;
77938;SDS011;67136;47.546;21.630;2023-04-07T11:20:05;20.40;;;10.17;;
77938;SDS011;67136;47.546;21.630;2023-04-07T11:23:08;20.27;;;10.45;;
77938;SDS011;67136;47.546;21.630;2023-04-07T11:26:12;21.23;;;9.27;;
77938;SDS011;67136;47.546;21.630;2023-04-07T11:29:15;21.90;;;10.85;;
77938;SDS011;67136;47.546;21.630;2023-04-07T11:32:22;16.17;;;9.13;;
77938;SDS011;67136;47.546;21.630;2023-04-07T11:35:30;14.70;;;7.97;;
77938;SDS011;67136;47.546;21.630;2023-04-07T11:38:34;15.45;;;8.82;;
77938;SDS011;67136;47.546;21.630;2023-04-07T11:41:44;15.85;;;8.63;;
77938;SDS011;67136;47.546;21.630;2023-04-07T11:44:48;15.35;;;8.55;;
77938;SDS011;67136;47.546;21.630;2023-04-07T11:47:50;15.20;;;8.70;;
77938;SDS011;67136;47.546;21.630;2023-04-07T11:50:53;14.90;;;9.13;;
77938;SDS011;67136;47.546;21.630;2023-04-07T11:53:56;17.77;;;9.40;;
77938;SDS011;67136;47.546;21.630;2023-04-07T11:56:58;19.83;;;10.15;;
77938;SDS011;67136;47.546;21.630;2023-04-07T12:00:08;15.32;;;9.20;;
77938;SDS011;67136;47.546;21.630;2023-04-07T12:03:12;17.17;;;9.53;;
77938;SDS011;67136;47.546;21.630;2023-04-07T12:06:25;17.17;;;8.97;;
77938;SDS011;67136;47.546;21.630;2023-04-07T12:09:32;16.55;;;9.02;;
77938;SDS011;67136;47.546;21.630;2023-04-07T12:12:39;14.35;;;8.45;;
77938;SDS011;67136;47.546;21.630;2023-04-07T12:15:50;15.30;;;8.27;;
77938;SDS011;67136;47.546;21.630;2023-04-07T12:18:52;13.27;;;7.90;;
77938;SDS011;67136;47.546;21.630;2023-04-07T12:21:56;15.10;;;8.23;;
77938;SDS011;67136;47.546;21.630;2023-04-07T12:25:00;13.30;;;7.55;;
77938;SDS011;67136;47.546;21.630;2023-04-07T12:28:05;15.15;;;8.23;;
77938;SDS011;67136;47.546;21.630;2023-04-07T12:31:07;15.75;;;8.27;;
77938;SDS011;67136;47.546;21.630;2023-04-07T12:34:11;15.40;;;7.90;;
77938;SDS011;67136;47.546;21.630;2023-04-07T12:37:13;14.13;;;6.90;;
77938;SDS011;67136;47.546;21.630;2023-04-07T12:40:16;11.70;;;6.80;;
77938;SDS011;67136;47.546;21.630;2023-04-07T12:43:19;13.32;;;7.20;;
77938;SDS011;67136;47.546;21.630;2023-04-07T12:46:21;12.95;;;7.18;;
77938;SDS011;67136;47.546;21.630;2023-04-07T12:49:24;13.53;;;6.83;;
77938;SDS011;67136;47.546;21.630;2023-04-07T12:52:27;12.53;;;7.33;;
77938;SDS011;67136;47.546;21.630;2023-04-07T12:55:30;12.15;;;7.00;;
77938;SDS011;67136;47.546;21.630;2023-04-07T12:58:35;12.52;;;7.37;;
77938;SDS011;67136;47.546;21.630;2023-04-07T13:01:37;12.98;;;6.70;;
77938;SDS011;67136;47.546;21.630;2023-04-07T13:04:40;10.90;;;6.53;;
77938;SDS011;67136;47.546;21.630;2023-04-07T13:07:47;11.27;;;6.50;;
77938;SDS011;67136;47.546;21.630;2023-04-07T13:10:51;12.07;;;6.45;;
77938;SDS011;67136;47.546;21.630;2023-04-07T13:13:53;11.65;;;6.85;;
77938;SDS011;67136;47.546;21.630;2023-04-07T13:16:59;8.32;;;5.57;;
77938;SDS011;67136;47.546;21.630;2023-04-07T13:20:03;9.67;;;5.53;;
77938;SDS011;67136;47.546;21.630;2023-04-07T13:23:07;10.23;;;5.70;;
77938;SDS011;67136;47.546;21.630;2023-04-07T13:26:11;15.00;;;5.80;;
77938;SDS011;67136;47.546;21.630;2023-04-07T13:29:14;9.60;;;5.75;;
77938;SDS011;67136;47.546;21.630;2023-04-07T13:32:17;8.82;;;5.37;;
77938;SDS011;67136;47.546;21.630;2023-04-07T13:35:20;9.70;;;5.87;;
77938;SDS011;67136;47.546;21.630;2023-04-07T13:38:22;9.93;;;6.40;;
77938;SDS011;67136;47.546;21.630;2023-04-07T13:41:25;13.85;;;5.65;;
77938;SDS011;67136;47.546;21.630;2023-04-07T13:44:27;12.20;;;6.75;;
77938;SDS011;67136;47.546;21.630;2023-04-07T13:47:32;11.00;;;6.20;;
77938;SDS011;67136;47.546;21.630;2023-04-07T13:50:35;9.93;;;5.90;;
77938;SDS011;67136;47.546;21.630;2023-04-07T13:53:38;10.20;;;6.10;;
77938;SDS011;67136;47.546;21.630;2023-04-07T13:56:41;9.50;;;5.62;;
77938;SDS011;67136;47.546;21.630;2023-04-07T13:59:44;10.13;;;5.47;;
77938;SDS011;67136;47.546;21.630;2023-04-07T14:02:47;9.25;;;6.07;;
77938;SDS011;67136;47.546;21.630;2023-04-07T14:05:50;9.20;;;5.80;;
77938;SDS011;67136;47.546;21.630;2023-04-07T14:08:53;11.23;;;6.57;;
77938;SDS011;67136;47.546;21.630;2023-04-07T14:11:56;11.30;;;6.75;;
77938;SDS011;67136;47.546;21.630;2023-04-07T14:14:59;19.95;;;9.30;;
77938;SDS011;67136;47.546;21.630;2023-04-07T14:18:01;18.12;;;10.48;;
77938;SDS011;67136;47.546;21.630;2023-04-07T14:21:04;14.20;;;8.30;;
77938;SDS011;67136;47.546;21.630;2023-04-07T14:24:07;14.97;;;8.13;;
77938;SDS011;67136;47.546;21.630;2023-04-07T14:27:12;14.10;;;7.90;;
77938;SDS011;67136;47.546;21.630;2023-04-07T14:30:17;14.93;;;8.07;;
77938;SDS011;67136;47.546;21.630;2023-04-07T14:33:20;19.15;;;9.00;;
77938;SDS011;67136;47.546;21.630;2023-04-07T14:36:23;18.07;;;8.17;;
77938;SDS011;67136;47.546;21.630;2023-04-07T14:39:25;15.50;;;7.97;;
77938;SDS011;67136;47.546;21.630;2023-04-07T14:42:29;17.23;;;9.48;;
77938;SDS011;67136;47.546;21.630;2023-04-07T14:45:31;19.05;;;10.90;;
77938;SDS011;67136;47.546;21.630;2023-04-07T14:48:35;11.57;;;7.07;;
77938;SDS011;67136;47.546;21.630;2023-04-07T14:51:38;14.77;;;8.33;;
77938;SDS011;67136;47.546;21.630;2023-04-07T14:54:40;12.37;;;7.50;;
77938;SDS011;67136;47.546;21.630;2023-04-07T14:57:43;13.38;;;7.07;;
77938;SDS011;67136;47.546;21.630;2023-04-07T15:00:46;17.05;;;9.10;;
77938;SDS011;67136;47.546;21.630;2023-04-07T15:03:49;16.15;;;8.80;;
77938;SDS011;67136;47.546;21.630;2023-04-07T15:06:54;30.50;;;13.37;;
77938;SDS011;67136;47.546;21.630;2023-04-07T15:09:57;23.97;;;12.23;;
77938;SDS011;67136;47.546;21.630;2023-04-07T15:13:01;14.77;;;7.78;;
77938;SDS011;67136;47.546;21.630;2023-04-07T15:16:13;12.40;;;7.25;;
77938;SDS011;67136;47.546;21.630;2023-04-07T15:19:17;16.48;;;9.10;;
77938;SDS011;67136;47.546;21.630;2023-04-07T15:22:19;16.50;;;8.80;;
77938;SDS011;67136;47.546;21.630;2023-04-07T15:25:22;16.73;;;9.23;;
77938;SDS011;67136;47.546;21.630;2023-04-07T15:28:24;20.60;;;9.30;;
77938;SDS011;67136;47.546;21.630;2023-04-07T15:31:27;15.57;;;9.05;;
77938;SDS011;67136;47.546;21.630;2023-04-07T15:34:31;16.62;;;8.95;;
77938;SDS011;67136;47.546;21.630;2023-04-07T15:37:33;18.77;;;9.17;;
77938;SDS011;67136;47.546;21.630;2023-04-07T15:40:36;17.77;;;9.20;;
77938;SDS011;67136;47.546;21.630;2023-04-07T15:43:39;19.87;;;9.73;;
77938;SDS011;67136;47.546;21.630;2023-04-07T15:46:42;19.35;;;10.05;;
77938;SDS011;67136;47.546;21.630;2023-04-07T15:49:45;17.25;;;9.80;;
77938;SDS011;67136;47.546;21.630;2023-04-07T15:52:47;21.10;;;10.10;;
77938;SDS011;67136;47.546;21.630;2023-04-07T15:55:50;19.00;;;9.90;;
77938;SDS011;67136;47.546;21.630;2023-04-07T15:58:52;17.35;;;9.57;;
77938;SDS011;67136;47.546;21.630;2023-04-07T16:01:55;18.40;;;9.75;;
77938;SDS011;67136;47.546;21.630;2023-04-07T16:04:58;19.10;;;10.13;;
77938;SDS011;67136;47.546;21.630;2023-04-07T16:08:00;21.10;;;10.60;;
77938;SDS011;67136;47.546;21.630;2023-04-07T16:11:03;19.87;;;11.50;;
77938;SDS011;67136;47.546;21.630;2023-04-07T16:14:05;17.37;;;9.90;;
77938;SDS011;67136;47.546;21.630;2023-04-07T16:17:10;19.30;;;10.73;;
77938;SDS011;67136;47.546;21.630;2023-04-07T16:20:13;18.98;;;11.23;;
77938;SDS011;67136;47.546;21.630;2023-04-07T16:23:16;22.97;;;10.67;;
77938;SDS011;67136;47.546;21.630;2023-04-07T16:26:18;19.30;;;10.37;;
77938;SDS011;67136;47.546;21.630;2023-04-07T16:29:22;18.60;;;10.90;;
77938;SDS011;67136;47.546;21.630;2023-04-07T16:32:24;23.25;;;11.27;;
77938;SDS011;67136;47.546;21.630;2023-04-07T16:35:27;20.88;;;11.15;;
77938;SDS011;67136;47.546;21.630;2023-04-07T16:38:31;19.73;;;10.83;;
77938;SDS011;67136;47.546;21.630;2023-04-07T16:41:33;21.93;;;10.53;;
77938;SDS011;67136;47.546;21.630;2023-04-07T16:44:36;19.92;;;11.43;;
77938;SDS011;67136;47.546;21.630;2023-04-07T16:47:39;21.83;;;11.73;;
77938;SDS011;67136;47.546;21.630;2023-04-07T16:50:45;24.50;;;12.05;;
77938;SDS011;67136;47.546;21.630;2023-04-07T16:53:48;22.40;;;11.77;;
77938;SDS011;67136;47.546;21.630;2023-04-07T16:56:51;21.77;;;11.30;;
77938;SDS011;67136;47.546;21.630;2023-04-07T16:59:54;19.83;;;10.52;;
77938;SDS011;67136;47.546;21.630;2023-04-07T17:02:56;20.73;;;10.60;;
77938;SDS011;67136;47.546;21.630;2023-04-07T17:05:59;21.02;;;10.57;;
77938;SDS011;67136;47.546;21.630;2023-04-07T17:09:06;19.80;;;10.03;;
77938;SDS011;67136;47.546;21.630;2023-04-07T17:12:09;20.13;;;11.00;;
77938;SDS011;67136;47.546;21.630;2023-04-07T17:15:14;20.80;;;11.10;;
77938;SDS011;67136;47.546;21.630;2023-04-07T17:18:17;23.48;;;10.85;;
77938;SDS011;67136;47.546;21.630;2023-04-07T17:21:20;22.65;;;11.30;;
77938;SDS011;67136;47.546;21.630;2023-04-07T17:24:25;20.10;;;10.70;;
77938;SDS011;67136;47.546;21.630;2023-04-07T17:27:27;23.17;;;10.70;;
77938;SDS011;67136;47.546;21.630;2023-04-07T17:30:30;20.95;;;11.10;;
77938;SDS011;67136;47.546;21.630;2023-04-07T17:33:32;24.90;;;11.40;;
77938;SDS011;67136;47.546;21.630;2023-04-07T17:36:36;22.13;;;11.50;;
77938;SDS011;67136;47.546;21.630;2023-04-07T17:39:39;23.83;;;11.97;;
77938;SDS011;67136;47.546;21.630;2023-04-07T17:42:42;21.83;;;11.47;;
77938;SDS011;67136;47.546;21.630;2023-04-07T17:45:44;23.60;;;11.75;;
77938;SDS011;67136;47.546;21.630;2023-04-07T17:48:47;24.33;;;12.10;;
77938;SDS011;67136;47.546;21.630;2023-04-07T17:51:51;25.35;;;11.50;;
77938;SDS011;67136;47.546;21.630;2023-04-07T17:54:55;27.43;;;13.27;;
77938;SDS011;67136;47.546;21.630;2023-04-07T17:57:57;24.60;;;13.20;;
77938;SDS011;67136;47.546;21.630;2023-04-07T18:01:02;28.75;;;12.98;;
77938;SDS011;67136;47.546;21.630;2023-04-07T18:04:05;28.50;;;13.30;;
77938;SDS011;67136;47.546;21.630;2023-04-07T18:07:08;29.25;;;13.05;;
77938;SDS011;67136;47.546;21.630;2023-04-07T18:10:14;30.93;;;13.53;;
77938;SDS011;67136;47.546;21.630;2023-04-07T18:13:17;34.80;;;15.23;;